Latest Weather Observations for Cape Moreton

IDQ60801

Issued at 12:05 pm EST Thursday 21 August 2014 (issued every 30 minutes, with the page automatically refreshed every 10 minutes)

About weather observations | Map of weather stations | Latest weather observations for QLD | Other Formats
Station Details ID: 040043 Name: CAPE MORETON LIGHTHOUSE Lat: -27.03 Lon: 153.47 Height: 99.9 m
Data from the previous 72 hours. | See also: Recent months at Cape Moreton
Date/Time
EST
Temp
°C
App
Temp
°C
Dew
Point
Rel
Hum
%
Delta-T
°C
Wind Press
QNH
hPa
Press
MSL
hPa
Rain
since 9 am
mm
Dir
 
Spd
km/h
Gust
km/h
Spd
kts
Gust
kts
21/12:05pm 17.2 8.8 13.5 79 2.1 SSE 50 69 27 37 1021.4 1021.3 -
21/12:00pm 17.3 8.2 13.6 79 2.1 SSE 54 69 29 37 1021.6 1021.5 -
21/11:41am 17.4 8.9 13.3 77 2.3 SSE 50 69 27 37 1021.7 1021.6 -
21/11:30am 17.7 9.8 13.8 78 2.2 SSE 48 63 26 34 1021.8 1021.7 -
21/11:10am 17.2 9.4 13.1 77 2.3 S 46 65 25 35 1022.1 1022.0 -
21/11:00am 17.3 9.1 12.8 75 2.5 SSE 48 65 26 35 1022.2 1022.1 -
21/10:50am 17.3 9.1 13.0 76 2.4 SSE 48 67 26 36 1022.2 1022.1 -
21/10:30am 17.2 9.1 13.3 78 2.2 SSE 48 65 26 35 1022.3 1022.2 -
21/10:01am 16.9 9.2 13.4 80 2.0 SSE 46 65 25 35 1022.2 1022.1 -
21/10:00am 17.0 9.4 13.5 80 2.0 SSE 46 63 25 34 1022.3 1022.2 -
21/09:30am 16.5 8.3 12.8 79 2.1 SSE 48 70 26 38 1022.0 1021.9 -
21/09:07am 17.0 8.6 13.5 80 2.0 SSE 50 69 27 37 1022.3 1022.2 -
21/09:00am 16.7 7.4 13.2 80 2.0 SSE 54 70 29 38 1022.1 1022.0 -
21/08:37am 16.4 8.2 12.8 79 2.0 SSE 48 67 26 36 1022.1 1022.0 -
21/08:30am 16.4 7.9 13.1 81 1.8 SSE 50 65 27 35 1022.1 1022.0 -
21/08:01am 16.5 8.0 13.2 81 1.9 SSE 50 69 27 37 1021.7 1021.6 -
21/08:00am 16.4 7.5 13.1 81 1.8 SSE 52 69 28 37 1021.6 1021.5 -
21/07:52am 16.5 6.2 13.0 80 2.0 SSE 59 78 32 42 1021.4 1021.3 -
21/07:30am 16.5 5.9 13.0 80 2.0 SSE 61 76 33 41 1020.8 1020.7 -
21/07:00am 16.0 7.7 12.7 81 1.8 SSE 48 69 26 37 1020.8 1020.7 -
21/06:30am 16.0 7.7 12.6 80 1.9 SSE 48 70 26 38 1021.0 1020.9 -
21/06:04am 16.3 7.7 13.0 81 1.8 SSE 50 69 27 37 1020.6 1020.5 -
21/06:00am 16.2 7.2 12.7 80 1.9 SSE 52 69 28 37 1020.4 1020.3 -
21/05:42am 16.2 8.0 12.9 81 1.8 SSE 48 67 26 36 1020.4 1020.3 -
21/05:30am 16.3 8.1 12.8 80 1.9 SSE 48 63 26 34 1020.3 1020.2 -
21/05:15am 16.4 8.6 13.1 81 1.8 SSE 46 65 25 35 1020.3 1020.2 -
21/05:00am 16.4 7.8 12.9 80 1.9 SSE 50 65 27 35 1020.2 1020.1 -
21/04:30am 16.4 8.6 13.1 81 1.8 SSE 46 67 25 36 1020.2 1020.1 -
21/04:05am 16.5 8.8 13.4 82 1.7 SSE 46 65 25 35 1019.8 1019.7 -
21/04:00am 16.5 8.5 13.4 82 1.7 S 48 61 26 33 1020.0 1019.9 -
21/03:31am 16.5 9.5 13.6 83 1.6 S 43 63 23 34 1020.0 1019.9 -
21/03:30am 16.5 9.5 13.6 83 1.6 S 43 57 23 31 1020.1 1020.0 -
21/03:00am 16.5 9.5 13.6 83 1.6 S 43 57 23 31 1020.5 1020.4 -
21/02:30am 16.5 9.5 13.8 84 1.5 S 43 54 23 29 1020.6 1020.5 -
21/02:00am 16.5 10.0 14.0 85 1.4 S 41 54 22 29 1020.7 1020.6 -
21/01:30am 16.2 9.8 14.2 88 1.1 S 41 52 22 28 1020.8 1020.7 -
21/01:01am 16.3 9.3 13.8 85 1.4 S 43 61 23 33 1021.2 1021.1 -
21/01:00am 16.3 9.1 13.6 84 1.5 S 44 61 24 33 1021.2 1021.1 -
21/12:30am 16.8 9.8 13.7 82 1.8 SSE 43 63 23 34 1020.6 1020.5 -
21/12:09am 17.1 10.8 13.6 80 2.0 S 39 48 21 26 1021.2 1021.1 -
21/12:00am 17.5 9.7 14.0 80 2.0 SE 48 56 26 30 1020.9 1020.8 -
 
Date/Time
EST
Temp
°C
App
Temp
°C
Dew
Point
Rel
Hum
%
Delta-T
°C
Wind Press
QNH
hPa
Press
MSL
hPa
Rain
since 9 am
mm
Dir
 
Spd
km/h
Gust
km/h
Spd
kts
Gust
kts
20/11:30pm 17.4 9.6 13.1 76 2.4 SE 46 56 25 30 1021.0 1020.9 -
20/11:00pm 17.7 9.8 13.8 78 2.2 SE 48 57 26 31 1021.4 1021.3 -
20/10:30pm 17.8 9.4 13.5 76 2.4 SE 50 57 27 31 1021.2 1021.1 -
20/10:00pm 17.5 11.4 14.0 80 2.0 SE 39 54 21 29 1021.6 1021.5 -
20/09:30pm 17.9 8.7 13.4 75 2.6 SE 54 61 29 33 1021.0 1020.9 -
20/09:00pm 17.8 9.0 13.5 76 2.4 SE 52 61 28 33 1021.2 1021.1 -
20/08:30pm 18.0 9.6 13.5 75 2.6 SE 50 59 27 32 1021.3 1021.2 -
20/08:00pm 17.9 9.0 13.0 73 2.8 SE 52 61 28 33 1021.2 1021.1 -
20/07:30pm 17.9 9.4 13.2 74 2.6 SE 50 67 27 36 1020.7 1020.6 -
20/07:00pm 18.0 8.8 13.5 75 2.6 SE 54 61 29 33 1020.5 1020.4 -
20/06:30pm 17.9 9.1 13.4 75 2.6 SE 52 59 28 32 1020.1 1020.0 -
20/06:00pm 17.9 9.5 13.4 75 2.5 SE 50 61 27 33 1019.6 1019.5 -
20/05:30pm 17.8 9.7 13.1 74 2.7 SE 48 57 26 31 1019.2 1019.1 -
20/05:00pm 17.8 9.2 12.9 73 2.7 SE 50 61 27 33 1018.8 1018.6 -
20/04:30pm 18.0 8.9 12.5 70 3.1 SSE 52 61 28 33 1018.5 1018.3 -
20/04:00pm 17.9 9.2 12.4 70 3.1 SE 50 57 27 31 1018.1 1017.9 -
20/03:30pm 18.1 9.0 12.5 70 3.1 SE 52 57 28 31 1018.0 1017.8 -
20/03:00pm 18.1 8.8 11.9 67 3.4 SSE 52 59 28 32 1017.9 1017.7 -
20/02:30pm 18.3 9.8 12.1 67 3.4 SSE 48 57 26 31 1018.0 1017.8 -
20/02:00pm 18.6 11.0 12.4 67 3.5 SSE 44 54 24 29 1017.9 1017.7 -
20/01:30pm 18.7 12.3 12.0 65 3.7 SSE 37 48 20 26 1018.4 1018.2 -
20/01:00pm 18.5 11.7 10.8 61 4.2 SSE 37 50 20 27 1018.3 1018.1 -
20/12:30pm 18.7 11.7 11.3 62 4.1 SSE 39 52 21 28 1018.5 1018.3 -
20/12:00pm 18.5 11.3 10.6 60 4.3 SSE 39 46 21 25 1018.7 1018.5 -
20/11:30am 18.6 13.9 10.7 60 4.3 SSE 26 35 14 19 1019.4 1019.3 -
20/11:00am 18.2 13.7 10.1 59 4.3 S 24 33 13 18 1019.7 1019.6 -
20/10:30am 18.2 13.6 9.8 58 4.5 S 24 35 13 19 1019.8 1019.7 -
20/10:00am 18.1 13.1 9.5 57 4.5 S 26 37 14 20 1019.8 1019.7 -
20/09:30am 18.1 13.1 9.7 58 4.5 S 26 37 14 20 1020.0 1019.9 -
20/09:00am 17.7 12.2 9.3 58 4.4 S 28 37 15 20 1019.8 1019.7 -
20/08:30am 17.6 12.6 9.5 59 4.3 S 26 37 14 20 1019.8 1019.7 -
20/08:00am 16.4 12.4 9.1 62 3.8 S 20 28 11 15 1019.7 1019.6 -
20/07:30am 15.7 11.2 8.4 62 3.7 SSW 22 30 12 16 1019.5 1019.4 -
20/07:00am 15.1 10.5 8.1 63 3.5 SSW 22 32 12 17 1019.2 1019.1 -
20/06:30am 15.0 10.2 8.7 66 3.2 S 24 32 13 17 1018.8 1018.6 -
20/06:00am 14.9 9.6 8.6 66 3.2 SSW 26 32 14 17 1018.2 1018.0 -
20/05:30am 14.3 9.5 8.9 70 2.8 SSW 24 30 13 16 1017.8 1017.6 -
20/05:00am 14.1 10.1 9.1 72 2.5 SW 20 26 11 14 1017.6 1017.4 -
20/04:30am 14.2 9.8 9.0 71 2.7 SW 22 28 12 15 1017.3 1017.1 -
20/04:00am 14.2 10.2 9.2 72 2.6 SW 20 24 11 13 1017.0 1016.8 -
20/03:30am 14.1 10.2 9.3 73 2.5 SW 20 24 11 13 1016.8 1016.6 -
20/03:00am 13.9 9.9 8.9 72 2.5 SW 20 24 11 13 1016.6 1016.4 -
20/02:30am 14.0 10.6 9.0 72 2.5 SW 17 22 9 12 1016.7 1016.5 -
20/02:00am 14.5 10.6 9.3 71 2.7 SW 20 26 11 14 1016.6 1016.4 -
20/01:30am 14.7 10.1 9.7 72 2.6 SW 24 30 13 16 1016.4 1016.2 -
20/01:00am 14.8 10.3 10.0 73 2.5 SW 24 30 13 16 1016.4 1016.2 -
20/12:30am 14.7 10.4 9.5 71 2.7 SW 22 28 12 15 1016.4 1016.2 -
20/12:00am 15.0 10.6 9.1 68 3.0 SW 22 30 12 16 1016.4 1016.2 -
 
Date/Time
EST
Temp
°C
App
Temp
°C
Dew
Point
Rel
Hum
%
Delta-T
°C
Wind Press
QNH
hPa
Press
MSL
hPa
Rain
since 9 am
mm
Dir
 
Spd
km/h
Gust
km/h
Spd
kts
Gust
kts
19/11:30pm 15.1 11.0 8.8 66 3.2 WSW 20 28 11 15 1016.4 1016.2 -
19/11:00pm 15.4 11.2 8.4 63 3.6 SW 20 30 11 16 1016.3 1016.1 -
19/10:30pm 15.3 11.4 8.8 65 3.3 SW 19 24 10 13 1016.3 1016.1 -
19/10:00pm 15.7 11.9 9.1 65 3.4 SW 19 28 10 15 1016.1 1015.9 -
19/09:30pm 16.3 12.2 8.5 60 4.0 SW 20 28 11 15 1016.1 1015.9 -
19/09:00pm 16.7 12.2 8.4 58 4.2 WSW 22 30 12 16 1015.8 1015.6 -
19/08:30pm 17.1 12.1 8.0 55 4.6 WSW 24 39 13 21 1015.7 1015.5 -
19/08:00pm 17.5 12.5 8.1 54 4.8 WSW 24 35 13 19 1015.6 1015.4 -
19/07:30pm 17.8 11.6 7.8 52 5.1 WSW 30 52 16 28 1014.9 1014.7 -
19/07:27pm 17.8 11.5 7.5 51 5.2 WSW 30 52 16 28 1014.9 1014.7 -
19/07:00pm 18.0 11.7 7.4 50 5.4 WSW 30 44 16 24 1014.6 1014.4 -
19/06:30pm 18.2 12.0 7.9 51 5.3 WSW 30 44 16 24 1014.1 1013.9 -
19/06:00pm 18.2 12.9 8.5 53 5.0 WSW 26 35 14 19 1013.6 1013.4 -
19/05:30pm 18.5 13.3 9.0 54 5.0 WSW 26 39 14 21 1013.1 1012.9 -
19/05:00pm 19.4 14.6 8.7 50 5.6 WSW 24 37 13 20 1012.4 1012.3 -
19/04:30pm 20.1 13.6 8.1 46 6.2 WSW 32 46 17 25 1011.9 1011.8 -
19/04:00pm 20.6 15.2 7.9 44 6.6 WSW 26 43 14 23 1011.7 1011.6 -
19/03:30pm 20.9 16.6 7.9 43 6.8 WSW 20 37 11 20 1011.6 1011.5 -
19/03:00pm 20.7 14.8 7.7 43 6.7 WSW 28 43 15 23 1011.4 1011.3 -
19/02:30pm 20.8 16.7 8.8 46 6.4 W 20 33 11 18 1011.6 1011.5 -
19/02:00pm 20.8 16.4 8.8 46 6.4 W 22 37 12 20 1011.8 1011.7 -
19/01:30pm 20.6 15.8 8.9 47 6.2 W 24 35 13 19 1011.9 1011.8 -
19/01:00pm 20.2 15.0 8.8 48 6.0 W 26 43 14 23 1011.8 1011.7 -
19/12:30pm 19.4 13.0 8.4 49 5.7 W 32 43 17 23 1011.8 1011.7 -
19/12:00pm 19.1 14.5 8.1 49 5.7 W 22 39 12 21 1012.5 1012.4 -
19/11:30am 18.5 13.1 7.9 50 5.4 WSW 26 41 14 22 1012.9 1012.7 -
19/11:01am 18.5 12.8 8.5 52 5.2 WSW 28 46 15 25 1013.3 1013.1 -
19/11:00am 18.6 13.3 8.6 52 5.2 WSW 26 46 14 25 1013.4 1013.2 -
19/10:30am 18.0 12.4 8.6 54 4.9 W 28 46 15 25 1013.5 1013.3 -
19/10:00am 17.1 12.3 9.0 59 4.2 W 24 35 13 19 1013.8 1013.6 -
19/09:30am 16.4 12.1 9.3 63 3.7 W 22 32 12 17 1014.0 1013.8 -
19/09:00am 15.4 10.5 8.6 64 3.5 W 24 35 13 19 1014.0 1013.8 -
19/08:30am 15.4 11.6 9.1 66 3.2 W 19 33 10 18 1014.2 1014.0 -
19/08:08am 14.8 7.1 8.7 67 3.1 W 39 57 21 31 1013.0 1012.8 -
19/08:00am 14.7 7.4 8.6 67 3.1 W 37 50 20 27 1013.0 1012.8 -
19/07:30am 14.6 9.7 8.5 67 3.1 W 24 33 13 18 1014.1 1013.9 -
19/07:00am 14.2 8.5 8.2 67 3.0 W 28 43 15 23 1013.6 1013.4 -
19/06:30am 14.1 10.4 8.1 67 3.0 W 17 30 9 16 1013.6 1013.4 -
19/06:00am 14.1 10.1 8.1 67 3.0 W 19 32 10 17 1013.0 1012.8 -
19/05:30am 14.1 10.1 8.1 67 3.0 W 19 28 10 15 1012.9 1012.7 -
19/05:00am 14.0 10.6 7.5 65 3.2 W 15 22 8 12 1012.5 1012.4 -
19/04:30am 14.5 10.7 7.5 63 3.5 W 17 22 9 12 1012.5 1012.4 -
19/04:00am 14.8 10.3 7.1 60 3.8 W 20 28 11 15 1012.1 1012.0 -
19/03:30am 15.0 9.8 7.3 60 3.8 W 24 32 13 17 1012.0 1011.9 -
19/03:00am 15.3 9.4 7.3 59 4.0 W 28 37 15 20 1011.8 1011.7 -
19/02:30am 15.2 10.8 7.2 59 4.0 W 20 26 11 14 1012.2 1012.1 -
19/02:00am 14.9 10.6 7.2 60 3.8 W 19 22 10 12 1012.3 1012.2 -
19/01:30am 15.3 10.1 7.3 59 4.0 WSW 24 32 13 17 1012.4 1012.3 -
19/01:00am 15.1 10.8 7.2 59 3.9 WSW 19 26 10 14 1012.7 1012.5 -
19/12:30am 15.7 11.8 7.0 56 4.3 WSW 17 28 9 15 1013.0 1012.8 -
19/12:00am 16.1 12.2 7.1 55 4.5 WSW 17 24 9 13 1013.2 1013.0 -
 
Date/Time
EST
Temp
°C
App
Temp
°C
Dew
Point
Rel
Hum
%
Delta-T
°C
Wind Press
QNH
hPa
Press
MSL
hPa
Rain
since 9 am
mm
Dir
 
Spd
km/h
Gust
km/h
Spd
kts
Gust
kts
18/11:30pm 15.9 13.6 7.4 57 4.2 ENE 9 13 5 7 1013.2 1013.0 -
18/11:00pm 16.1 10.4 6.8 54 4.6 WSW 26 39 14 21 1013.1 1012.9 -
18/10:55pm 16.1 10.0 6.5 53 4.7 WSW 28 46 15 25 1013.0 1012.8 -
18/10:30pm 16.2 9.2 6.9 54 4.6 WSW 33 44 18 24 1013.2 1013.0 -
18/10:00pm 16.3 9.3 7.0 54 4.6 WSW 33 46 18 25 1013.1 1012.9 -
18/09:30pm 16.4 10.3 6.8 53 4.8 WSW 28 48 15 26 1013.4 1013.2 -
18/09:00pm 16.4 10.5 7.3 55 4.6 W 28 41 15 22 1013.2 1013.0 -
18/08:30pm 16.4 11.2 7.1 54 4.6 W 24 39 13 21 1013.1 1012.9 -
18/08:00pm 16.6 11.4 7.3 54 4.7 WSW 24 43 13 23 1012.9 1012.7 -
18/07:30pm 16.9 12.0 7.0 52 4.9 W 22 35 12 19 1012.7 1012.5 -
18/07:00pm 16.9 11.6 7.0 52 4.9 W 24 37 13 20 1012.1 1012.0 -
18/06:30pm 17.2 12.8 7.3 52 5.0 W 20 33 11 18 1011.9 1011.8 -
18/06:00pm 17.2 11.5 6.7 50 5.2 WSW 26 39 14 21 1011.5 1011.4 -
18/05:30pm 17.3 10.3 6.8 50 5.2 WSW 33 54 18 29 1010.6 1010.4 -
18/05:00pm 17.8 11.8 7.2 50 5.4 WSW 28 48 15 26 1010.0 1009.8 -
18/04:51pm 17.9 11.5 7.0 49 5.5 W 30 48 16 26 1009.9 1009.7 -
18/04:30pm 18.9 14.0 8.6 51 5.4 W 24 35 13 19 1009.6 1009.4 -
18/04:00pm 18.7 14.0 7.8 49 5.6 WSW 22 35 12 19 1009.3 1009.1 -
18/03:30pm 18.2 11.9 7.3 49 5.5 W 30 41 16 22 1008.8 1008.6 -
18/03:00pm 19.4 13.5 7.5 46 6.1 W 28 44 15 24 1008.7 1008.5 -
18/02:38pm 19.3 12.9 6.8 44 6.3 W 30 48 16 26 1008.6 1008.4 -
18/02:30pm 19.4 12.7 7.2 45 6.2 W 32 46 17 25 1008.6 1008.4 -
18/02:21pm 19.2 12.8 7.0 45 6.2 W 30 48 16 26 1008.6 1008.4 -
18/02:00pm 19.4 13.1 7.5 46 6.1 W 30 43 16 23 1008.5 1008.3 -
18/01:30pm 19.2 13.8 7.9 48 5.8 W 26 39 14 21 1008.8 1008.6 -
18/01:00pm 18.5 13.8 7.6 49 5.6 W 22 39 12 21 1009.2 1009.0 -
18/12:30pm 18.0 11.6 7.1 49 5.5 W 30 43 16 23 1009.5 1009.3 -

Other Formats:

Comma delimited format used in spreadsheet applications
http://www.bom.gov.au/fwo/IDQ60801/IDQ60801.94594.axf

JavaScript Object Notation format (JSON) in row-major order
http://www.bom.gov.au/fwo/IDQ60801/IDQ60801.94594.json